Texas City — WDD4983 — position and weather

sailwx.info

Track history (hours):
 
Tides and Currents Weather Stations Pressure Air Temp Water Temp Dewpoint Dewpoint Depression Visibility Wind Speed Wind Dir Waves Ship Positions

Texas City

Owner: Marathon Petroleum Company LP, Findlay, OH. More information available from US FCC via Universal Licensing System and Coast Guard Vessel Documentation Center.

Last reported at 2018-Jun-20 13:57 UTC. Time now 2018-Jun-24 01:25 UTC.
Position N 29°50' W 091°50'.

Length 24 m.

Type: . MMSI: 367135470.

Date/timePositionNaut miles runAvg speedWind from/ knotsBaromVisibWave heightAir tempDewpointWater temp
2018-Jun-20 13:57N 29°50' W 091°50'2 4.4
2018-Jun-20 13:29N 29°51' W 091°52'2 5.1
2018-Jun-20 13:00N 29°51' W 091°55'2 4.8
2018-Jun-20 12:30N 29°50' W 091°58'2 4.9
2018-Jun-20 12:00N 29°50' W 092°00'2 4.9
2018-Jun-20 11:30N 29°49' W 092°03'2 4.6
2018-Jun-20 11:00N 29°48' W 092°06'2 3.6
2018-Jun-20 10:30N 29°47' W 092°07'2 3.8
2018-Jun-20 10:00N 29°47' W 092°10'2 3.4
2018-Jun-20 09:30N 29°47' W 092°12'1 1.9
2018-Jun-20 09:00N 29°47' W 092°13'1 2.0
2018-Jun-20 08:25N 29°48' W 092°14'0 0.2
2018-Jun-20 07:58N 29°48' W 092°14'0 0.0
2018-Jun-20 07:28N 29°48' W 092°14'1 1.0
2018-Jun-20 06:55N 29°48' W 092°14'0 0.9
2018-Jun-20 06:28N 29°48' W 092°15'0 0.0
2018-Jun-20 05:58N 29°48' W 092°15'0 0.3
2018-Jun-20 05:28N 29°48' W 092°15'1 1.7
2018-Jun-20 04:58N 29°49' W 092°16'0 0.0
2018-Jun-20 04:28N 29°48' W 092°16'0 0.0
2018-Jun-20 03:58N 29°49' W 092°16'0 0.0
2018-Jun-20 03:28N 29°49' W 092°16'0 0.1
2018-Jun-20 02:58N 29°49' W 092°16'0 0.1
2018-Jun-20 02:28N 29°49' W 092°16'0 0.2
2018-Jun-20 01:58N 29°49' W 092°16'0 0.1
2018-Jun-20 01:31N 29°49' W 092°16'0 0.0
2018-Jun-20 00:58N 29°49' W 092°16'0 0.3
2018-Jun-20 00:30N 29°49' W 092°16'0 0.0
2018-Jun-20 00:00N 29°49' W 092°16'0 0.5
2018-Jun-19 23:30N 29°49' W 092°17'1 2.3
2018-Jun-19 23:00N 29°49' W 092°18'2 4.4
2018-Jun-19 22:31N 29°51' W 092°20'2 4.2
2018-Jun-19 21:59N 29°52' W 092°22'39 4.6
2018-Jun-19 13:34N 29°56' W 093°06'0 4.6
2018-Jun-19 13:30N 29°56' W 093°07'2 4.6
2018-Jun-19 13:00N 29°56' W 093°09'2 4.5
2018-Jun-19 12:30N 29°58' W 093°11'2 4.4
2018-Jun-19 12:01N 29°59' W 093°13'2 3.8
2018-Jun-19 11:31N 30°01' W 093°14'1 2.7
2018-Jun-19 11:01N 30°02' W 093°15'1 3.0
2018-Jun-19 10:31N 30°03' W 093°16'2 3.2
2018-Jun-19 10:01N 30°05' W 093°17'1 2.5
2018-Jun-19 09:30N 30°05' W 093°18'1 1.6
2018-Jun-19 08:57N 30°06' W 093°18'0 0.9
2018-Jun-19 08:30N 30°06' W 093°19'0 0.0
2018-Jun-19 08:00N 30°06' W 093°19'0 0.0
2018-Jun-19 07:30N 30°06' W 093°19'0 0.0
2018-Jun-19 06:57N 30°06' W 093°19'0 0.0
2018-Jun-19 06:30N 30°06' W 093°19'0 0.0
2018-Jun-19 06:00N 30°06' W 093°19'0 0.1
2018-Jun-19 05:30N 30°06' W 093°19'0 0.0
2018-Jun-19 05:00N 30°06' W 093°19'0 0.0
2018-Jun-19 04:30N 30°06' W 093°19'0 0.0
2018-Jun-19 03:57N 30°06' W 093°19'0 0.1
2018-Jun-19 03:30N 30°06' W 093°19'0 0.0
2018-Jun-19 03:00N 30°06' W 093°19'0 0.1
2018-Jun-19 02:30N 30°06' W 093°19'0 0.0
2018-Jun-19 02:00N 30°06' W 093°19'0 0.0
2018-Jun-19 01:30N 30°06' W 093°19'0 0.1
2018-Jun-19 01:00N 30°06' W 093°19'1 1.3
2018-Jun-19 00:30N 30°06' W 093°19'2 3.8
2018-Jun-19 00:00N 30°04' W 093°21'1 3.0
2018-Jun-18 23:30N 30°04' W 093°22'2 3.6
2018-Jun-18 22:59N 30°04' W 093°24'0 0.1
2018-Jun-18 22:30N 30°04' W 093°24'0 0.0
2018-Jun-18 22:00N 30°04' W 093°24'0 0.0
2018-Jun-18 21:30N 30°04' W 093°24'0 0.0
2018-Jun-18 21:00N 30°04' W 093°24'0 0.0
2018-Jun-18 20:30N 30°04' W 093°24'0 0.0
2018-Jun-18 20:00N 30°04' W 093°24'0 0.0
2018-Jun-18 19:30N 30°04' W 093°24'0 0.0
2018-Jun-18 19:00N 30°04' W 093°24'0 0.0
2018-Jun-18 18:30N 30°04' W 093°24'0 0.0
2018-Jun-18 18:00N 30°04' W 093°24'0 0.0
2018-Jun-18 17:30N 30°04' W 093°24'0 0.0
2018-Jun-18 16:57N 30°04' W 093°24'0 0.0
2018-Jun-18 16:27N 30°04' W 093°24'0 0.0
2018-Jun-18 16:00N 30°04' W 093°24'0 0.0
2018-Jun-18 15:30N 30°04' W 093°24'0 0.0
2018-Jun-18 15:00N 30°04' W 093°24'0 0.0
2018-Jun-18 14:30N 30°04' W 093°24'0 0.0
2018-Jun-18 14:00N 30°04' W 093°24'0 0.0
2018-Jun-18 13:30N 30°04' W 093°24'0 0.2
2018-Jun-18 13:00N 30°04' W 093°24'0 0.2
2018-Jun-18 12:31N 30°04' W 093°25'0 0.1
2018-Jun-18 12:00N 30°04' W 093°25'0 0.6
2018-Jun-18 11:30N 30°04' W 093°25'0 0.9
2018-Jun-18 11:00N 30°04' W 093°26'1 2.7
2018-Jun-18 10:30N 30°04' W 093°27'2 4.8
2018-Jun-18 10:00N 30°04' W 093°30'2 4.9
2018-Jun-18 09:30N 30°04' W 093°33'2 4.9
2018-Jun-18 09:00N 30°04' W 093°35'2 4.8
2018-Jun-18 08:30N 30°04' W 093°38'2 4.1
2018-Jun-18 07:59N 30°04' W 093°41'2 4.7
2018-Jun-18 07:30N 30°03' W 093°43'1 2.1
2018-Jun-18 07:00N 30°02' W 093°44'2 4.8
2018-Jun-18 06:30N 30°00' W 093°46'3 5.4
2018-Jun-18 06:00N 29°59' W 093°49'3 5.4
2018-Jun-18 05:30N 29°58' W 093°51'3 5.6
2018-Jun-18 05:00N 29°55' W 093°53'3 5.4
2018-Jun-18 04:30N 29°53' W 093°55'3 5.7
2018-Jun-18 04:00N 29°51' W 093°57'2 4.7
2018-Jun-18 03:30N 29°49' W 093°58'2 4.2
2018-Jun-18 03:00N 29°48' W 094°00'2 4.5
2018-Jun-18 02:30N 29°46' W 094°02'2 4.5
2018-Jun-18 02:00N 29°45' W 094°04'2 4.4
2018-Jun-18 01:30N 29°44' W 094°06'2 4.4
2018-Jun-18 01:00N 29°42' W 094°08'2 4.2
2018-Jun-18 00:30N 29°41' W 094°10'2 4.3
2018-Jun-18 00:00N 29°41' W 094°13'2 4.6
2018-Jun-17 23:29N 29°39' W 094°15'2 4.6
2018-Jun-17 23:00N 29°38' W 094°17'2 4.6
2018-Jun-17 22:28N 29°37' W 094°20'2 4.5
2018-Jun-17 22:00N 29°36' W 094°22'2 4.0
2018-Jun-17 21:30N 29°36' W 094°24'15 3.7
2018-Jun-17 17:20N 29°28' W 094°39'2 5.0
2018-Jun-17 17:00N 29°27' W 094°41'3 4.8
2018-Jun-17 16:25N 29°25' W 094°44'1 3.4
2018-Jun-17 16:00N 29°24' W 094°45'2 4.0
2018-Jun-17 15:30N 29°23' W 094°46'2 4.7
2018-Jun-17 15:00N 29°22' W 094°49'1 2.5
2018-Jun-17 14:30N 29°22' W 094°50'3 5.2
2018-Jun-17 13:59N 29°23' W 094°53'0 0.0
2018-Jun-17 03:21N 29°22' W 094°53'0 0.0
2018-Jun-17 03:00N 29°22' W 094°53'0 0.0
2018-Jun-17 02:30N 29°22' W 094°53'0 0.0
2018-Jun-17 02:00N 29°22' W 094°53'0 0.0
2018-Jun-17 01:30N 29°22' W 094°53'0 0.0
2018-Jun-17 01:00N 29°22' W 094°53'0 0.0
2018-Jun-17 00:30N 29°22' W 094°53'0 0.0
2018-Jun-16 23:51N 29°22' W 094°53'0 0.0
2018-Jun-16 23:30N 29°22' W 094°53'0 0.0
2018-Jun-16 23:00N 29°22' W 094°53'0 0.0
2018-Jun-16 22:30N 29°22' W 094°53'0 0.0
2018-Jun-16 22:00N 29°22' W 094°53'0 0.0
2018-Jun-16 21:30N 29°22' W 094°53'0 0.0
2018-Jun-16 20:57N 29°22' W 094°53'0 0.0
2018-Jun-16 20:30N 29°22' W 094°53'0 0.0
2018-Jun-16 20:00N 29°22' W 094°53'0 0.0
2018-Jun-16 19:30N 29°22' W 094°53'0 0.1
2018-Jun-16 19:00N 29°22' W 094°53'0 0.1
2018-Jun-16 18:30N 29°22' W 094°53'0 0.0
2018-Jun-16 17:57N 29°22' W 094°53'0 0.0
2018-Jun-16 17:30N 29°22' W 094°53'0 0.0
2018-Jun-16 17:00N 29°22' W 094°53'0 0.0
2018-Jun-16 16:30N 29°22' W 094°53'0 0.0
2018-Jun-16 16:00N 29°22' W 094°53'0 0.0
2018-Jun-16 15:30N 29°22' W 094°53'0 0.0
2018-Jun-16 14:57N 29°22' W 094°53'0 0.0
2018-Jun-16 14:30N 29°22' W 094°53'0 0.0
2018-Jun-16 14:00N 29°22' W 094°53'0 0.0
2018-Jun-16 13:27N 29°22' W 094°53'0 0.0
2018-Jun-16 13:00N 29°22' W 094°53'0 0.0
2018-Jun-16 12:27N 29°22' W 094°53'0 0.0
2018-Jun-16 12:00N 29°22' W 094°53'0 0.0
2018-Jun-16 09:03N 29°22' W 094°53'0 0.1
2018-Jun-16 09:00N 29°22' W 094°53'0 0.0
2018-Jun-16 08:30N 29°22' W 094°53'0 0.0
2018-Jun-16 07:57N 29°22' W 094°53'0 0.0
2018-Jun-16 07:30N 29°22' W 094°53'0 0.0
2018-Jun-16 07:00N 29°22' W 094°53'0 0.0
2018-Jun-16 06:30N 29°22' W 094°53'0 0.0
2018-Jun-16 06:00N 29°22' W 094°53'0 0.0
2018-Jun-16 05:30N 29°22' W 094°53'0 0.0
2018-Jun-16 05:00N 29°22' W 094°53'0 0.0
2018-Jun-16 04:27N 29°22' W 094°53'0 0.0
2018-Jun-16 04:00N 29°22' W 094°53'0 0.0
2018-Jun-16 03:30N 29°22' W 094°53'0 0.0
2018-Jun-16 03:00N 29°22' W 094°53'0 0.0
2018-Jun-16 02:30N 29°22' W 094°53'0 0.0
2018-Jun-16 02:00N 29°22' W 094°53'0 0.0
2018-Jun-16 01:30N 29°22' W 094°53'0 0.0
2018-Jun-16 01:00N 29°22' W 094°53'0 0.0
2018-Jun-16 00:30N 29°22' W 094°53'0 0.1
2018-Jun-16 00:00N 29°22' W 094°53'0 0.2
2018-Jun-15 23:30N 29°22' W 094°53'2 5.0
2018-Jun-15 23:00N 29°22' W 094°50'3 5.7
2018-Jun-15 22:30N 29°22' W 094°47'2 4.5
2018-Jun-15 22:00N 29°24' W 094°45'0 0.1
2018-Jun-15 21:24N 29°24' W 094°45'0 0.4
2018-Jun-15 20:53N 29°24' W 094°45'0 0.0
2018-Jun-15 20:29N 29°24' W 094°45'0 0.0
2018-Jun-15 19:56N 29°24' W 094°45'0 0.0
2018-Jun-15 19:29N 29°24' W 094°45'0 0.0
2018-Jun-15 18:56N 29°24' W 094°45'0 0.0
2018-Jun-15 18:29N 29°24' W 094°45'0 0.0
2018-Jun-15 17:47N 29°24' W 094°45'0 0.0
2018-Jun-15 17:29N 29°24' W 094°45'0 0.0
2018-Jun-15 16:59N 29°24' W 094°45'0 0.0
2018-Jun-15 16:29N 29°24' W 094°45'0 0.0
2018-Jun-15 15:59N 29°24' W 094°45'0 0.0
2018-Jun-15 14:56N 29°24' W 094°45'0 0.0
2018-Jun-15 14:26N 29°24' W 094°45'0 0.0
2018-Jun-15 13:59N 29°24' W 094°45'0 0.0
2018-Jun-15 13:29N 29°24' W 094°45'0 0.0
2018-Jun-15 12:59N 29°24' W 094°45'0 0.0
2018-Jun-15 12:29N 29°24' W 094°45'0 0.0
2018-Jun-15 11:56N 29°24' W 094°45'0 0.0
2018-Jun-15 11:29N 29°24' W 094°45'0 0.0
2018-Jun-15 10:50N 29°24' W 094°45'0 0.0
2018-Jun-15 10:29N 29°24' W 094°45'0 0.0
2018-Jun-15 09:47N 29°24' W 094°45'0 0.0
2018-Jun-15 09:26N 29°24' W 094°45'0 0.0
2018-Jun-15 08:53N 29°24' W 094°45'0 0.0
2018-Jun-15 08:29N 29°24' W 094°45'0 0.0
2018-Jun-15 07:59N 29°24' W 094°45'0 0.0
2018-Jun-15 07:29N 29°24' W 094°45'0 0.0
2018-Jun-15 06:53N 29°24' W 094°45'0 0.0
2018-Jun-15 06:20N 29°24' W 094°45'0 0.0
2018-Jun-15 05:59N 29°24' W 094°45'0 0.0
2018-Jun-15 05:29N 29°24' W 094°45'0 0.0
2018-Jun-15 04:59N 29°24' W 094°45'0 0.0
2018-Jun-15 04:26N 29°24' W 094°45'0 0.0
2018-Jun-15 03:50N 29°24' W 094°45'0 0.0
2018-Jun-15 03:26N 29°24' W 094°45'0 0.0
2018-Jun-15 02:59N 29°24' W 094°45'0 0.0
2018-Jun-15 02:20N 29°24' W 094°45'0 0.0
2018-Jun-15 01:59N 29°24' W 094°45'0 0.0
2018-Jun-15 01:29N 29°24' W 094°45'0 0.0
2018-Jun-15 00:59N 29°24' W 094°45'0 0.0
2018-Jun-15 00:26N 29°24' W 094°45'0 0.0
2018-Jun-14 23:56N 29°24' W 094°45'0 0.0
2018-Jun-14 23:23N 29°24' W 094°45'0 0.0
2018-Jun-14 22:56N 29°24' W 094°45'0 0.0
2018-Jun-14 22:29N 29°24' W 094°45'0 0.0
2018-Jun-14 21:59N 29°24' W 094°45'0 0.0
2018-Jun-14 21:23N 29°24' W 094°45'0 0.0
2018-Jun-14 20:59N 29°24' W 094°45'0 0.0
2018-Jun-14 20:29N 29°24' W 094°45'0 0.0
2018-Jun-14 19:59N 29°24' W 094°45'1 1.8
2018-Jun-14 19:30N 29°23' W 094°46'0 0.5
2018-Jun-14 18:51N 29°23' W 094°46'1 3.0
2018-Jun-14 18:27N 29°24' W 094°45'0 0.0
2018-Jun-14 17:57N 29°24' W 094°45'0 0.0
2018-Jun-14 16:15N 29°24' W 094°45'0 0.0
2018-Jun-14 15:09N 29°24' W 094°45'0 0.0
2018-Jun-14 14:39N 29°24' W 094°45'0 0.0
2018-Jun-14 14:27N 29°24' W 094°45'0 0.0
2018-Jun-14 13:57N 29°24' W 094°45'0 0.0
2018-Jun-14 13:27N 29°24' W 094°45'0 0.0
2018-Jun-14 12:33N 29°24' W 094°45'0 0.0
2018-Jun-14 12:21N 29°24' W 094°45'0 0.0
2018-Jun-14 11:51N 29°24' W 094°45'0 0.0
2018-Jun-14 09:21N 29°24' W 094°45'0 0.0
2018-Jun-14 08:57N 29°24' W 094°45'0 0.0
2018-Jun-14 08:15N 29°24' W 094°45'0 0.0
2018-Jun-14 07:51N 29°24' W 094°45'0 0.0
2018-Jun-14 07:21N 29°24' W 094°45'0 0.0
2018-Jun-14 06:57N 29°24' W 094°45'0 0.0
2018-Jun-14 06:21N 29°24' W 094°45'0 0.0
2018-Jun-14 05:51N 29°24' W 094°45'0 0.0
2018-Jun-14 05:21N 29°24' W 094°45'0 0.0
2018-Jun-14 04:57N 29°24' W 094°45'0 0.0
2018-Jun-14 04:27N 29°24' W 094°45'0 0.0
2018-Jun-14 03:51N 29°24' W 094°45'0 0.0
2018-Jun-14 03:09N 29°24' W 094°45'1 3.5
2018-Jun-14 03:00N 29°24' W 094°46'1 1.5
2018-Jun-14 02:28N 29°23' W 094°46'0 0.0
2018-Jun-14 01:52N 29°23' W 094°46'0 0.0
2018-Jun-14 01:22N 29°23' W 094°46'0 0.0
2018-Jun-14 00:58N 29°23' W 094°46'0 0.0
2018-Jun-14 00:28N 29°23' W 094°46'0 0.0
2018-Jun-13 23:58N 29°23' W 094°46'0 0.0
2018-Jun-13 23:28N 29°23' W 094°46'0 0.0
2018-Jun-13 22:55N 29°23' W 094°46'0 0.0
2018-Jun-13 22:25N 29°23' W 094°46'0 0.0
2018-Jun-13 21:58N 29°23' W 094°46'0 0.0
2018-Jun-13 21:25N 29°23' W 094°46'0 0.0
2018-Jun-13 20:55N 29°23' W 094°46'0 0.0
2018-Jun-13 20:25N 29°23' W 094°46'0 0.0
2018-Jun-13 19:49N 29°23' W 094°46'0 0.0
2018-Jun-13 19:28N 29°23' W 094°46'0 0.0
2018-Jun-13 18:58N 29°23' W 094°46'0 0.0
2018-Jun-13 18:28N 29°23' W 094°46'0 0.0
2018-Jun-13 17:58N 29°23' W 094°46'0 0.0
2018-Jun-13 17:28N 29°23' W 094°46'0 0.0
2018-Jun-13 16:55N 29°23' W 094°46'0 0.0
2018-Jun-13 16:25N 29°23' W 094°46'0 0.0
2018-Jun-13 15:55N 29°23' W 094°46'0 0.0
2018-Jun-13 15:28N 29°23' W 094°46'0 0.0
2018-Jun-13 14:58N 29°23' W 094°46'0 0.2
2018-Jun-13 14:25N 29°23' W 094°46'0 0.0
2018-Jun-13 13:49N 29°23' W 094°46'0 0.0
2018-Jun-13 13:19N 29°23' W 094°46'0 0.2
2018-Jun-13 12:58N 29°23' W 094°46'0 0.0
2018-Jun-13 12:25N 29°23' W 094°46'0 0.0
2018-Jun-13 11:58N 29°23' W 094°46'0 0.0
2018-Jun-13 11:25N 29°23' W 094°46'0 0.0
2018-Jun-13 10:13N 29°23' W 094°46'0 0.0
2018-Jun-13 09:58N 29°23' W 094°46'0 0.0
2018-Jun-13 09:25N 29°23' W 094°46'0 0.0
2018-Jun-13 08:58N 29°23' W 094°46'0 0.0
2018-Jun-13 08:28N 29°23' W 094°46'0 0.0
2018-Jun-13 07:58N 29°23' W 094°46'0 0.0
2018-Jun-13 07:28N 29°23' W 094°46'0 0.0
2018-Jun-13 06:55N 29°23' W 094°46'0 0.0
2018-Jun-13 06:22N 29°23' W 094°46'0 0.0
2018-Jun-13 05:55N 29°23' W 094°46'0 0.0
2018-Jun-13 05:13N 29°23' W 094°46'0 0.0
2018-Jun-13 04:55N 29°23' W 094°46'0 0.0
2018-Jun-13 04:19N 29°23' W 094°46'0 0.0
2018-Jun-13 03:58N 29°23' W 094°46'0 0.0
2018-Jun-13 03:22N 29°23' W 094°46'0 0.0
2018-Jun-13 02:58N 29°23' W 094°46'0 0.0
2018-Jun-13 02:25N 29°23' W 094°46'0 0.0
2018-Jun-13 01:49N 29°23' W 094°46'0 0.0
2018-Jun-13 01:19N 29°23' W 094°46'0 0.0
2018-Jun-13 00:55N 29°23' W 094°46'0 0.0
2018-Jun-13 00:19N 29°23' W 094°46'0 0.0
2018-Jun-12 23:55N 29°23' W 094°46'0 0.2
2018-Jun-12 21:31N 29°23' W 094°46'0 0.2
2018-Jun-12 21:22N 29°23' W 094°46'0 0.0
2018-Jun-12 20:58N 29°23' W 094°46'0 0.0
2018-Jun-12 20:28N 29°23' W 094°46'0 0.0
2018-Jun-12 19:10N 29°23' W 094°46'0 0.1
2018-Jun-12 18:55N 29°23' W 094°46'1 1.7
2018-Jun-12 18:29N 29°24' W 094°45'9 5.7
2018-Jun-12 16:58N 29°29' W 094°37'4 6.5
2018-Jun-12 16:18N 29°30' W 094°32'5 5.6
2018-Jun-12 15:21N 29°34' W 094°28'2 5.5
2018-Jun-12 15:00N 29°34' W 094°25'2 4.1
2018-Jun-12 14:28N 29°36' W 094°24'2 3.2
2018-Jun-12 13:59N 29°36' W 094°22'1 2.4
2018-Jun-12 13:30N 29°37' W 094°21'3 6.1
2018-Jun-12 13:00N 29°38' W 094°18'3 6.1
2018-Jun-12 12:30N 29°40' W 094°15'3 6.3
2018-Jun-12 12:00N 29°41' W 094°12'3 6.1
2018-Jun-12 11:30N 29°42' W 094°09'3 5.1
2018-Jun-12 11:01N 29°44' W 094°06'3 6.4
2018-Jun-12 10:31N 29°46' W 094°03'3 6.4
2018-Jun-12 10:01N 29°48' W 094°01'2 4.9
2018-Jun-12 09:31N 29°49' W 093°58'3 5.4
2018-Jun-12 09:00N 29°51' W 093°56'3 6.1
2018-Jun-12 08:30N 29°54' W 093°54'3 6.3
2018-Jun-12 08:01N 29°56' W 093°52'3 6.6
2018-Jun-12 07:30N 29°59' W 093°49'3 6.8
2018-Jun-12 07:00N 30°00' W 093°46'3 6.2
2018-Jun-12 06:31N 30°03' W 093°44'3 5.4
2018-Jun-12 06:01N 30°04' W 093°41'3 6.5
2018-Jun-12 05:30N 30°04' W 093°37'3 5.9
2018-Jun-12 05:00N 30°04' W 093°34'3 6.0
2018-Jun-12 04:31N 30°04' W 093°30'3 6.2
2018-Jun-12 04:01N 30°04' W 093°27'3 5.6
2018-Jun-12 03:31N 30°04' W 093°23'2 3.7
2018-Jun-12 03:01N 30°04' W 093°21'2 4.7
2018-Jun-12 02:31N 30°05' W 093°20'2 3.2
2018-Jun-12 01:58N 30°05' W 093°18'0 0.5
2018-Jun-12 01:30N 30°05' W 093°17'1 1.8
2018-Jun-12 00:56N 30°04' W 093°16'0 0.0
2018-Jun-12 00:29N 30°04' W 093°16'0 0.1
2018-Jun-11 23:59N 30°04' W 093°16'0 0.0
2018-Jun-11 23:29N 30°04' W 093°16'0 0.0
2018-Jun-11 22:59N 30°04' W 093°16'0 0.0
2018-Jun-11 22:29N 30°04' W 093°16'0 0.0
2018-Jun-11 21:59N 30°04' W 093°16'0 0.0
2018-Jun-11 21:29N 30°04' W 093°16'0 0.0
2018-Jun-11 20:59N 30°04' W 093°16'0 0.0
2018-Jun-11 20:29N 30°04' W 093°16'0 0.0
2018-Jun-11 19:59N 30°04' W 093°16'0 0.0
2018-Jun-11 19:29N 30°04' W 093°16'0 0.0
2018-Jun-11 18:59N 30°04' W 093°16'0 0.0
2018-Jun-11 18:26N 30°04' W 093°16'0 0.0
2018-Jun-11 17:59N 30°04' W 093°16'0 0.0
2018-Jun-11 17:26N 30°04' W 093°16'0 0.0
2018-Jun-11 16:59N 30°04' W 093°16'0 0.0
2018-Jun-11 16:29N 30°04' W 093°16'0 0.0
2018-Jun-11 15:59N 30°04' W 093°16'0 0.0
2018-Jun-11 15:29N 30°04' W 093°16'0 0.0
2018-Jun-11 14:59N 30°04' W 093°16'0 0.8
2018-Jun-11 14:30N 30°04' W 093°16'2 4.7
2018-Jun-11 14:00N 30°02' W 093°15'1 1.3
2018-Jun-11 13:30N 30°02' W 093°14'0 0.0
2018-Jun-11 13:00N 30°02' W 093°14'0 0.0
2018-Jun-11 12:24N 30°02' W 093°14'0 0.0
2018-Jun-11 12:00N 30°02' W 093°14'0 0.0
2018-Jun-11 11:30N 30°02' W 093°14'0 0.0
2018-Jun-11 11:00N 30°02' W 093°14'0 0.0
2018-Jun-11 10:30N 30°02' W 093°14'0 0.1
2018-Jun-11 10:01N 30°02' W 093°14'1 1.5
2018-Jun-11 09:30N 30°01' W 093°14'2 3.6
2018-Jun-11 09:00N 29°59' W 093°13'2 3.8
2018-Jun-11 08:30N 29°58' W 093°11'1 2.5
2018-Jun-11 08:01N 29°57' W 093°10'2 4.9
2018-Jun-11 07:31N 29°56' W 093°08'3 5.2
2018-Jun-11 06:59N 29°56' W 093°05'33 5.1
2018-Jun-11 00:31N 29°54' W 092°27'2 5.4
2018-Jun-11 00:14N 29°53' W 092°25'1 5.3
2018-Jun-11 00:00N 29°53' W 092°24'3 5.0
2018-Jun-10 23:30N 29°51' W 092°22'2 5.0
2018-Jun-10 23:00N 29°50' W 092°19'2 3.9
2018-Jun-10 22:30N 29°49' W 092°17'2 3.8
2018-Jun-10 22:00N 29°48' W 092°15'2 3.5
2018-Jun-10 21:30N 29°48' W 092°14'1 2.6
2018-Jun-10 21:00N 29°47' W 092°12'1 1.3
2018-Jun-10 20:28N 29°47' W 092°12'0 0.0
2018-Jun-10 19:58N 29°47' W 092°12'0 0.0
2018-Jun-10 19:28N 29°47' W 092°12'0 0.0
2018-Jun-10 18:58N 29°47' W 092°12'0 0.0
2018-Jun-10 18:28N 29°47' W 092°12'0 0.0
2018-Jun-10 17:58N 29°47' W 092°12'0 0.0
2018-Jun-10 17:28N 29°47' W 092°12'0 0.0
2018-Jun-10 16:58N 29°47' W 092°12'0 0.0
2018-Jun-10 16:28N 29°47' W 092°12'0 0.0
2018-Jun-10 15:58N 29°47' W 092°12'0 0.0
2018-Jun-10 15:30N 29°47' W 092°12'1 2.6
2018-Jun-10 14:58N 29°47' W 092°10'0 0.0
2018-Jun-10 13:58N 29°47' W 092°10'  
Track history (hours):
 
Tides and Currents Weather Stations Pressure Air Temp Water Temp Dewpoint Dewpoint Depression Visibility Wind Speed Wind Dir Waves Ship Positions

Texas City

Owner: Marathon Petroleum Company LP, Findlay, OH. More information available from US FCC via Universal Licensing System and Coast Guard Vessel Documentation Center.

Last reported at 2018-Jun-20 13:57 UTC. Time now 2018-Jun-24 01:25 UTC.
Position N 29°50' W 091°50'.

Length 24 m.

Type: . MMSI: 367135470.

Date/timePositionNaut miles runAvg speedWind from/ knotsBaromVisibWave heightAir tempDewpointWater temp
2018-Jun-20 13:57N 29°50' W 091°50'2 4.4
2018-Jun-20 13:29N 29°51' W 091°52'2 5.1
2018-Jun-20 13:00N 29°51' W 091°55'2 4.8
2018-Jun-20 12:30N 29°50' W 091°58'2 4.9
2018-Jun-20 12:00N 29°50' W 092°00'2 4.9
2018-Jun-20 11:30N 29°49' W 092°03'2 4.6
2018-Jun-20 11:00N 29°48' W 092°06'2 3.6
2018-Jun-20 10:30N 29°47' W 092°07'2 3.8
2018-Jun-20 10:00N 29°47' W 092°10'2 3.4
2018-Jun-20 09:30N 29°47' W 092°12'1 1.9
2018-Jun-20 09:00N 29°47' W 092°13'1 2.0
2018-Jun-20 08:25N 29°48' W 092°14'0 0.2
2018-Jun-20 07:58N 29°48' W 092°14'0 0.0
2018-Jun-20 07:28N 29°48' W 092°14'1 1.0
2018-Jun-20 06:55N 29°48' W 092°14'0 0.9
2018-Jun-20 06:28N 29°48' W 092°15'0 0.0
2018-Jun-20 05:58N 29°48' W 092°15'0 0.3
2018-Jun-20 05:28N 29°48' W 092°15'1 1.7
2018-Jun-20 04:58N 29°49' W 092°16'0 0.0
2018-Jun-20 04:28N 29°48' W 092°16'0 0.0
2018-Jun-20 03:58N 29°49' W 092°16'0 0.0
2018-Jun-20 03:28N 29°49' W 092°16'0 0.1
2018-Jun-20 02:58N 29°49' W 092°16'0 0.1
2018-Jun-20 02:28N 29°49' W 092°16'0 0.2
2018-Jun-20 01:58N 29°49' W 092°16'0 0.1
2018-Jun-20 01:31N 29°49' W 092°16'0 0.0
2018-Jun-20 00:58N 29°49' W 092°16'0 0.3
2018-Jun-20 00:30N 29°49' W 092°16'0 0.0
2018-Jun-20 00:00N 29°49' W 092°16'0 0.5
2018-Jun-19 23:30N 29°49' W 092°17'1 2.3
2018-Jun-19 23:00N 29°49' W 092°18'2 4.4
2018-Jun-19 22:31N 29°51' W 092°20'2 4.2
2018-Jun-19 21:59N 29°52' W 092°22'39 4.6
2018-Jun-19 13:34N 29°56' W 093°06'0 4.6
2018-Jun-19 13:30N 29°56' W 093°07'2 4.6
2018-Jun-19 13:00N 29°56' W 093°09'2 4.5
2018-Jun-19 12:30N 29°58' W 093°11'2 4.4
2018-Jun-19 12:01N 29°59' W 093°13'2 3.8
2018-Jun-19 11:31N 30°01' W 093°14'1 2.7
2018-Jun-19 11:01N 30°02' W 093°15'1 3.0
2018-Jun-19 10:31N 30°03' W 093°16'2 3.2
2018-Jun-19 10:01N 30°05' W 093°17'1 2.5
2018-Jun-19 09:30N 30°05' W 093°18'1 1.6
2018-Jun-19 08:57N 30°06' W 093°18'0 0.9
2018-Jun-19 08:30N 30°06' W 093°19'0 0.0
2018-Jun-19 08:00N 30°06' W 093°19'0 0.0
2018-Jun-19 07:30N 30°06' W 093°19'0 0.0
2018-Jun-19 06:57N 30°06' W 093°19'0 0.0
2018-Jun-19 06:30N 30°06' W 093°19'0 0.0
2018-Jun-19 06:00N 30°06' W 093°19'0 0.1
2018-Jun-19 05:30N 30°06' W 093°19'0 0.0
2018-Jun-19 05:00N 30°06' W 093°19'0 0.0
2018-Jun-19 04:30N 30°06' W 093°19'0 0.0
2018-Jun-19 03:57N 30°06' W 093°19'0 0.1
2018-Jun-19 03:30N 30°06' W 093°19'0 0.0
2018-Jun-19 03:00N 30°06' W 093°19'0 0.1
2018-Jun-19 02:30N 30°06' W 093°19'0 0.0
2018-Jun-19 02:00N 30°06' W 093°19'0 0.0
2018-Jun-19 01:30N 30°06' W 093°19'0 0.1
2018-Jun-19 01:00N 30°06' W 093°19'1 1.3
2018-Jun-19 00:30N 30°06' W 093°19'2 3.8
2018-Jun-19 00:00N 30°04' W 093°21'1 3.0
2018-Jun-18 23:30N 30°04' W 093°22'2 3.6
2018-Jun-18 22:59N 30°04' W 093°24'0 0.1
2018-Jun-18 22:30N 30°04' W 093°24'0 0.0
2018-Jun-18 22:00N 30°04' W 093°24'0 0.0
2018-Jun-18 21:30N 30°04' W 093°24'0 0.0
2018-Jun-18 21:00N 30°04' W 093°24'0 0.0
2018-Jun-18 20:30N 30°04' W 093°24'0 0.0
2018-Jun-18 20:00N 30°04' W 093°24'0 0.0
2018-Jun-18 19:30N 30°04' W 093°24'0 0.0
2018-Jun-18 19:00N 30°04' W 093°24'0 0.0
2018-Jun-18 18:30N 30°04' W 093°24'0 0.0
2018-Jun-18 18:00N 30°04' W 093°24'0 0.0
2018-Jun-18 17:30N 30°04' W 093°24'0 0.0
2018-Jun-18 16:57N 30°04' W 093°24'0 0.0
2018-Jun-18 16:27N 30°04' W 093°24'0 0.0
2018-Jun-18 16:00N 30°04' W 093°24'0 0.0
2018-Jun-18 15:30N 30°04' W 093°24'0 0.0
2018-Jun-18 15:00N 30°04' W 093°24'0 0.0
2018-Jun-18 14:30N 30°04' W 093°24'0 0.0
2018-Jun-18 14:00N 30°04' W 093°24'0 0.0
2018-Jun-18 13:30N 30°04' W 093°24'0 0.2
2018-Jun-18 13:00N 30°04' W 093°24'0 0.2
2018-Jun-18 12:31N 30°04' W 093°25'0 0.1
2018-Jun-18 12:00N 30°04' W 093°25'0 0.6
2018-Jun-18 11:30N 30°04' W 093°25'0 0.9
2018-Jun-18 11:00N 30°04' W 093°26'1 2.7
2018-Jun-18 10:30N 30°04' W 093°27'2 4.8
2018-Jun-18 10:00N 30°04' W 093°30'2 4.9
2018-Jun-18 09:30N 30°04' W 093°33'2 4.9
2018-Jun-18 09:00N 30°04' W 093°35'2 4.8
2018-Jun-18 08:30N 30°04' W 093°38'2 4.1
2018-Jun-18 07:59N 30°04' W 093°41'2 4.7
2018-Jun-18 07:30N 30°03' W 093°43'1 2.1
2018-Jun-18 07:00N 30°02' W 093°44'2 4.8
2018-Jun-18 06:30N 30°00' W 093°46'3 5.4
2018-Jun-18 06:00N 29°59' W 093°49'3 5.4
2018-Jun-18 05:30N 29°58' W 093°51'3 5.6
2018-Jun-18 05:00N 29°55' W 093°53'3 5.4
2018-Jun-18 04:30N 29°53' W 093°55'3 5.7
2018-Jun-18 04:00N 29°51' W 093°57'2 4.7
2018-Jun-18 03:30N 29°49' W 093°58'2 4.2
2018-Jun-18 03:00N 29°48' W 094°00'2 4.5
2018-Jun-18 02:30N 29°46' W 094°02'2 4.5
2018-Jun-18 02:00N 29°45' W 094°04'2 4.4
2018-Jun-18 01:30N 29°44' W 094°06'2 4.4
2018-Jun-18 01:00N 29°42' W 094°08'2 4.2
2018-Jun-18 00:30N 29°41' W 094°10'2 4.3
2018-Jun-18 00:00N 29°41' W 094°13'2 4.6
2018-Jun-17 23:29N 29°39' W 094°15'2 4.6
2018-Jun-17 23:00N 29°38' W 094°17'2 4.6
2018-Jun-17 22:28N 29°37' W 094°20'2 4.5
2018-Jun-17 22:00N 29°36' W 094°22'2 4.0
2018-Jun-17 21:30N 29°36' W 094°24'15 3.7
2018-Jun-17 17:20N 29°28' W 094°39'2 5.0
2018-Jun-17 17:00N 29°27' W 094°41'3 4.8
2018-Jun-17 16:25N 29°25' W 094°44'1 3.4
2018-Jun-17 16:00N 29°24' W 094°45'2 4.0
2018-Jun-17 15:30N 29°23' W 094°46'2 4.7
2018-Jun-17 15:00N 29°22' W 094°49'1 2.5
2018-Jun-17 14:30N 29°22' W 094°50'3 5.2
2018-Jun-17 13:59N 29°23' W 094°53'0 0.0
2018-Jun-17 03:21N 29°22' W 094°53'0 0.0
2018-Jun-17 03:00N 29°22' W 094°53'0 0.0
2018-Jun-17 02:30N 29°22' W 094°53'0 0.0
2018-Jun-17 02:00N 29°22' W 094°53'0 0.0
2018-Jun-17 01:30N 29°22' W 094°53'0 0.0
2018-Jun-17 01:00N 29°22' W 094°53'0 0.0
2018-Jun-17 00:30N 29°22' W 094°53'0 0.0
2018-Jun-16 23:51N 29°22' W 094°53'0 0.0
2018-Jun-16 23:30N 29°22' W 094°53'0 0.0
2018-Jun-16 23:00N 29°22' W 094°53'0 0.0
2018-Jun-16 22:30N 29°22' W 094°53'0 0.0
2018-Jun-16 22:00N 29°22' W 094°53'0 0.0
2018-Jun-16 21:30N 29°22' W 094°53'0 0.0
2018-Jun-16 20:57N 29°22' W 094°53'0 0.0
2018-Jun-16 20:30N 29°22' W 094°53'0 0.0
2018-Jun-16 20:00N 29°22' W 094°53'0 0.0
2018-Jun-16 19:30N 29°22' W 094°53'0 0.1
2018-Jun-16 19:00N 29°22' W 094°53'0 0.1
2018-Jun-16 18:30N 29°22' W 094°53'0 0.0
2018-Jun-16 17:57N 29°22' W 094°53'0 0.0
2018-Jun-16 17:30N 29°22' W 094°53'0 0.0
2018-Jun-16 17:00N 29°22' W 094°53'0 0.0
2018-Jun-16 16:30N 29°22' W 094°53'0 0.0
2018-Jun-16 16:00N 29°22' W 094°53'0 0.0
2018-Jun-16 15:30N 29°22' W 094°53'0 0.0
2018-Jun-16 14:57N 29°22' W 094°53'0 0.0
2018-Jun-16 14:30N 29°22' W 094°53'0 0.0
2018-Jun-16 14:00N 29°22' W 094°53'0 0.0
2018-Jun-16 13:27N 29°22' W 094°53'0 0.0
2018-Jun-16 13:00N 29°22' W 094°53'0 0.0
2018-Jun-16 12:27N 29°22' W 094°53'0 0.0
2018-Jun-16 12:00N 29°22' W 094°53'0 0.0
2018-Jun-16 09:03N 29°22' W 094°53'0 0.1
2018-Jun-16 09:00N 29°22' W 094°53'0 0.0
2018-Jun-16 08:30N 29°22' W 094°53'0 0.0
2018-Jun-16 07:57N 29°22' W 094°53'0 0.0
2018-Jun-16 07:30N 29°22' W 094°53'0 0.0
2018-Jun-16 07:00N 29°22' W 094°53'0 0.0
2018-Jun-16 06:30N 29°22' W 094°53'0 0.0
2018-Jun-16 06:00N 29°22' W 094°53'0 0.0
2018-Jun-16 05:30N 29°22' W 094°53'0 0.0
2018-Jun-16 05:00N 29°22' W 094°53'0 0.0
2018-Jun-16 04:27N 29°22' W 094°53'0 0.0
2018-Jun-16 04:00N 29°22' W 094°53'0 0.0
2018-Jun-16 03:30N 29°22' W 094°53'0 0.0
2018-Jun-16 03:00N 29°22' W 094°53'0 0.0
2018-Jun-16 02:30N 29°22' W 094°53'0 0.0
2018-Jun-16 02:00N 29°22' W 094°53'0 0.0
2018-Jun-16 01:30N 29°22' W 094°53'0 0.0
2018-Jun-16 01:00N 29°22' W 094°53'0 0.0
2018-Jun-16 00:30N 29°22' W 094°53'0 0.1
2018-Jun-16 00:00N 29°22' W 094°53'0 0.2
2018-Jun-15 23:30N 29°22' W 094°53'2 5.0
2018-Jun-15 23:00N 29°22' W 094°50'3 5.7
2018-Jun-15 22:30N 29°22' W 094°47'2 4.5
2018-Jun-15 22:00N 29°24' W 094°45'0 0.1
2018-Jun-15 21:24N 29°24' W 094°45'0 0.4
2018-Jun-15 20:53N 29°24' W 094°45'0 0.0
2018-Jun-15 20:29N 29°24' W 094°45'0 0.0
2018-Jun-15 19:56N 29°24' W 094°45'0 0.0
2018-Jun-15 19:29N 29°24' W 094°45'0 0.0
2018-Jun-15 18:56N 29°24' W 094°45'0 0.0
2018-Jun-15 18:29N 29°24' W 094°45'0 0.0
2018-Jun-15 17:47N 29°24' W 094°45'0 0.0
2018-Jun-15 17:29N 29°24' W 094°45'0 0.0
2018-Jun-15 16:59N 29°24' W 094°45'0 0.0
2018-Jun-15 16:29N 29°24' W 094°45'0 0.0
2018-Jun-15 15:59N 29°24' W 094°45'0 0.0
2018-Jun-15 14:56N 29°24' W 094°45'0 0.0
2018-Jun-15 14:26N 29°24' W 094°45'0 0.0
2018-Jun-15 13:59N 29°24' W 094°45'0 0.0
2018-Jun-15 13:29N 29°24' W 094°45'0 0.0
2018-Jun-15 12:59N 29°24' W 094°45'0 0.0
2018-Jun-15 12:29N 29°24' W 094°45'0 0.0
2018-Jun-15 11:56N 29°24' W 094°45'0 0.0
2018-Jun-15 11:29N 29°24' W 094°45'0 0.0
2018-Jun-15 10:50N 29°24' W 094°45'0 0.0
2018-Jun-15 10:29N 29°24' W 094°45'0 0.0
2018-Jun-15 09:47N 29°24' W 094°45'0 0.0
2018-Jun-15 09:26N 29°24' W 094°45'0 0.0
2018-Jun-15 08:53N 29°24' W 094°45'0 0.0
2018-Jun-15 08:29N 29°24' W 094°45'0 0.0
2018-Jun-15 07:59N 29°24' W 094°45'0 0.0
2018-Jun-15 07:29N 29°24' W 094°45'0 0.0
2018-Jun-15 06:53N 29°24' W 094°45'0 0.0
2018-Jun-15 06:20N 29°24' W 094°45'0 0.0
2018-Jun-15 05:59N 29°24' W 094°45'0 0.0
2018-Jun-15 05:29N 29°24' W 094°45'0 0.0
2018-Jun-15 04:59N 29°24' W 094°45'0 0.0
2018-Jun-15 04:26N 29°24' W 094°45'0 0.0
2018-Jun-15 03:50N 29°24' W 094°45'0 0.0
2018-Jun-15 03:26N 29°24' W 094°45'0 0.0
2018-Jun-15 02:59N 29°24' W 094°45'0 0.0
2018-Jun-15 02:20N 29°24' W 094°45'0 0.0
2018-Jun-15 01:59N 29°24' W 094°45'0 0.0
2018-Jun-15 01:29N 29°24' W 094°45'0 0.0
2018-Jun-15 00:59N 29°24' W 094°45'0 0.0
2018-Jun-15 00:26N 29°24' W 094°45'0 0.0
2018-Jun-14 23:56N 29°24' W 094°45'0 0.0
2018-Jun-14 23:23N 29°24' W 094°45'0 0.0
2018-Jun-14 22:56N 29°24' W 094°45'0 0.0
2018-Jun-14 22:29N 29°24' W 094°45'0 0.0
2018-Jun-14 21:59N 29°24' W 094°45'0 0.0
2018-Jun-14 21:23N 29°24' W 094°45'0 0.0
2018-Jun-14 20:59N 29°24' W 094°45'0 0.0
2018-Jun-14 20:29N 29°24' W 094°45'0 0.0
2018-Jun-14 19:59N 29°24' W 094°45'1 1.8
2018-Jun-14 19:30N 29°23' W 094°46'0 0.5
2018-Jun-14 18:51N 29°23' W 094°46'1 3.0
2018-Jun-14 18:27N 29°24' W 094°45'0 0.0
2018-Jun-14 17:57N 29°24' W 094°45'0 0.0
2018-Jun-14 16:15N 29°24' W 094°45'0 0.0
2018-Jun-14 15:09N 29°24' W 094°45'0 0.0
2018-Jun-14 14:39N 29°24' W 094°45'0 0.0
2018-Jun-14 14:27N 29°24' W 094°45'0 0.0
2018-Jun-14 13:57N 29°24' W 094°45'0 0.0
2018-Jun-14 13:27N 29°24' W 094°45'0 0.0
2018-Jun-14 12:33N 29°24' W 094°45'0 0.0
2018-Jun-14 12:21N 29°24' W 094°45'0 0.0
2018-Jun-14 11:51N 29°24' W 094°45'0 0.0
2018-Jun-14 09:21N 29°24' W 094°45'0 0.0
2018-Jun-14 08:57N 29°24' W 094°45'0 0.0
2018-Jun-14 08:15N 29°24' W 094°45'0 0.0
2018-Jun-14 07:51N 29°24' W 094°45'0 0.0
2018-Jun-14 07:21N 29°24' W 094°45'0 0.0
2018-Jun-14 06:57N 29°24' W 094°45'0 0.0
2018-Jun-14 06:21N 29°24' W 094°45'0 0.0
2018-Jun-14 05:51N 29°24' W 094°45'0 0.0
2018-Jun-14 05:21N 29°24' W 094°45'0 0.0
2018-Jun-14 04:57N 29°24' W 094°45'0 0.0
2018-Jun-14 04:27N 29°24' W 094°45'0 0.0
2018-Jun-14 03:51N 29°24' W 094°45'0 0.0
2018-Jun-14 03:09N 29°24' W 094°45'1 3.5
2018-Jun-14 03:00N 29°24' W 094°46'1 1.5
2018-Jun-14 02:28N 29°23' W 094°46'0 0.0
2018-Jun-14 01:52N 29°23' W 094°46'0 0.0
2018-Jun-14 01:22N 29°23' W 094°46'0 0.0
2018-Jun-14 00:58N 29°23' W 094°46'0 0.0
2018-Jun-14 00:28N 29°23' W 094°46'0 0.0
2018-Jun-13 23:58N 29°23' W 094°46'0 0.0
2018-Jun-13 23:28N 29°23' W 094°46'0 0.0
2018-Jun-13 22:55N 29°23' W 094°46'0 0.0
2018-Jun-13 22:25N 29°23' W 094°46'0 0.0
2018-Jun-13 21:58N 29°23' W 094°46'0 0.0
2018-Jun-13 21:25N 29°23' W 094°46'0 0.0
2018-Jun-13 20:55N 29°23' W 094°46'0 0.0
2018-Jun-13 20:25N 29°23' W 094°46'0 0.0
2018-Jun-13 19:49N 29°23' W 094°46'0 0.0
2018-Jun-13 19:28N 29°23' W 094°46'0 0.0
2018-Jun-13 18:58N 29°23' W 094°46'0 0.0
2018-Jun-13 18:28N 29°23' W 094°46'0 0.0
2018-Jun-13 17:58N 29°23' W 094°46'0 0.0
2018-Jun-13 17:28N 29°23' W 094°46'0 0.0
2018-Jun-13 16:55N 29°23' W 094°46'0 0.0
2018-Jun-13 16:25N 29°23' W 094°46'0 0.0
2018-Jun-13 15:55N 29°23' W 094°46'0 0.0
2018-Jun-13 15:28N 29°23' W 094°46'0 0.0
2018-Jun-13 14:58N 29°23' W 094°46'0 0.2
2018-Jun-13 14:25N 29°23' W 094°46'0 0.0
2018-Jun-13 13:49N 29°23' W 094°46'0 0.0
2018-Jun-13 13:19N 29°23' W 094°46'0 0.2
2018-Jun-13 12:58N 29°23' W 094°46'0 0.0
2018-Jun-13 12:25N 29°23' W 094°46'0 0.0
2018-Jun-13 11:58N 29°23' W 094°46'0 0.0
2018-Jun-13 11:25N 29°23' W 094°46'0 0.0
2018-Jun-13 10:13N 29°23' W 094°46'0 0.0
2018-Jun-13 09:58N 29°23' W 094°46'0 0.0
2018-Jun-13 09:25N 29°23' W 094°46'0 0.0
2018-Jun-13 08:58N 29°23' W 094°46'0 0.0
2018-Jun-13 08:28N 29°23' W 094°46'0 0.0
2018-Jun-13 07:58N 29°23' W 094°46'0 0.0
2018-Jun-13 07:28N 29°23' W 094°46'0 0.0
2018-Jun-13 06:55N 29°23' W 094°46'0 0.0
2018-Jun-13 06:22N 29°23' W 094°46'0 0.0
2018-Jun-13 05:55N 29°23' W 094°46'0 0.0
2018-Jun-13 05:13N 29°23' W 094°46'0 0.0
2018-Jun-13 04:55N 29°23' W 094°46'0 0.0
2018-Jun-13 04:19N 29°23' W 094°46'0 0.0
2018-Jun-13 03:58N 29°23' W 094°46'0 0.0
2018-Jun-13 03:22N 29°23' W 094°46'0 0.0
2018-Jun-13 02:58N 29°23' W 094°46'0 0.0
2018-Jun-13 02:25N 29°23' W 094°46'0 0.0
2018-Jun-13 01:49N 29°23' W 094°46'0 0.0
2018-Jun-13 01:19N 29°23' W 094°46'0 0.0
2018-Jun-13 00:55N 29°23' W 094°46'0 0.0
2018-Jun-13 00:19N 29°23' W 094°46'0 0.0
2018-Jun-12 23:55N 29°23' W 094°46'0 0.2
2018-Jun-12 21:31N 29°23' W 094°46'0 0.2
2018-Jun-12 21:22N 29°23' W 094°46'0 0.0
2018-Jun-12 20:58N 29°23' W 094°46'0 0.0
2018-Jun-12 20:28N 29°23' W 094°46'0 0.0
2018-Jun-12 19:10N 29°23' W 094°46'0 0.1
2018-Jun-12 18:55N 29°23' W 094°46'1 1.7
2018-Jun-12 18:29N 29°24' W 094°45'9 5.7
2018-Jun-12 16:58N 29°29' W 094°37'4 6.5
2018-Jun-12 16:18N 29°30' W 094°32'5 5.6
2018-Jun-12 15:21N 29°34' W 094°28'2 5.5
2018-Jun-12 15:00N 29°34' W 094°25'2 4.1
2018-Jun-12 14:28N 29°36' W 094°24'2 3.2
2018-Jun-12 13:59N 29°36' W 094°22'1 2.4
2018-Jun-12 13:30N 29°37' W 094°21'3 6.1
2018-Jun-12 13:00N 29°38' W 094°18'3 6.1
2018-Jun-12 12:30N 29°40' W 094°15'3 6.3
2018-Jun-12 12:00N 29°41' W 094°12'3 6.1
2018-Jun-12 11:30N 29°42' W 094°09'3 5.1
2018-Jun-12 11:01N 29°44' W 094°06'3 6.4
2018-Jun-12 10:31N 29°46' W 094°03'3 6.4
2018-Jun-12 10:01N 29°48' W 094°01'2 4.9
2018-Jun-12 09:31N 29°49' W 093°58'3 5.4
2018-Jun-12 09:00N 29°51' W 093°56'3 6.1
2018-Jun-12 08:30N 29°54' W 093°54'3 6.3
2018-Jun-12 08:01N 29°56' W 093°52'3 6.6
2018-Jun-12 07:30N 29°59' W 093°49'3 6.8
2018-Jun-12 07:00N 30°00' W 093°46'3 6.2
2018-Jun-12 06:31N 30°03' W 093°44'3 5.4
2018-Jun-12 06:01N 30°04' W 093°41'3 6.5
2018-Jun-12 05:30N 30°04' W 093°37'3 5.9
2018-Jun-12 05:00N 30°04' W 093°34'3 6.0
2018-Jun-12 04:31N 30°04' W 093°30'3 6.2
2018-Jun-12 04:01N 30°04' W 093°27'3 5.6
2018-Jun-12 03:31N 30°04' W 093°23'2 3.7
2018-Jun-12 03:01N 30°04' W 093°21'2 4.7
2018-Jun-12 02:31N 30°05' W 093°20'2 3.2
2018-Jun-12 01:58N 30°05' W 093°18'0 0.5
2018-Jun-12 01:30N 30°05' W 093°17'1 1.8
2018-Jun-12 00:56N 30°04' W 093°16'0 0.0
2018-Jun-12 00:29N 30°04' W 093°16'0 0.1
2018-Jun-11 23:59N 30°04' W 093°16'0 0.0
2018-Jun-11 23:29N 30°04' W 093°16'0 0.0
2018-Jun-11 22:59N 30°04' W 093°16'0 0.0
2018-Jun-11 22:29N 30°04' W 093°16'0 0.0
2018-Jun-11 21:59N 30°04' W 093°16'0 0.0
2018-Jun-11 21:29N 30°04' W 093°16'0 0.0
2018-Jun-11 20:59N 30°04' W 093°16'0 0.0
2018-Jun-11 20:29N 30°04' W 093°16'0 0.0
2018-Jun-11 19:59N 30°04' W 093°16'0 0.0
2018-Jun-11 19:29N 30°04' W 093°16'0 0.0
2018-Jun-11 18:59N 30°04' W 093°16'0 0.0
2018-Jun-11 18:26N 30°04' W 093°16'0 0.0
2018-Jun-11 17:59N 30°04' W 093°16'0 0.0
2018-Jun-11 17:26N 30°04' W 093°16'0 0.0
2018-Jun-11 16:59N 30°04' W 093°16'0 0.0
2018-Jun-11 16:29N 30°04' W 093°16'0 0.0
2018-Jun-11 15:59N 30°04' W 093°16'0 0.0
2018-Jun-11 15:29N 30°04' W 093°16'0 0.0
2018-Jun-11 14:59N 30°04' W 093°16'0 0.8
2018-Jun-11 14:30N 30°04' W 093°16'2 4.7
2018-Jun-11 14:00N 30°02' W 093°15'1 1.3
2018-Jun-11 13:30N 30°02' W 093°14'0 0.0
2018-Jun-11 13:00N 30°02' W 093°14'0 0.0
2018-Jun-11 12:24N 30°02' W 093°14'0 0.0
2018-Jun-11 12:00N 30°02' W 093°14'0 0.0
2018-Jun-11 11:30N 30°02' W 093°14'0 0.0
2018-Jun-11 11:00N 30°02' W 093°14'0 0.0
2018-Jun-11 10:30N 30°02' W 093°14'0 0.1
2018-Jun-11 10:01N 30°02' W 093°14'1 1.5
2018-Jun-11 09:30N 30°01' W 093°14'2 3.6
2018-Jun-11 09:00N 29°59' W 093°13'2 3.8
2018-Jun-11 08:30N 29°58' W 093°11'1 2.5
2018-Jun-11 08:01N 29°57' W 093°10'2 4.9
2018-Jun-11 07:31N 29°56' W 093°08'3 5.2
2018-Jun-11 06:59N 29°56' W 093°05'33 5.1
2018-Jun-11 00:31N 29°54' W 092°27'2 5.4
2018-Jun-11 00:14N 29°53' W 092°25'1 5.3
2018-Jun-11 00:00N 29°53' W 092°24'3 5.0
2018-Jun-10 23:30N 29°51' W 092°22'2 5.0
2018-Jun-10 23:00N 29°50' W 092°19'2 3.9
2018-Jun-10 22:30N 29°49' W 092°17'2 3.8
2018-Jun-10 22:00N 29°48' W 092°15'2 3.5
2018-Jun-10 21:30N 29°48' W 092°14'1 2.6
2018-Jun-10 21:00N 29°47' W 092°12'1 1.3
2018-Jun-10 20:28N 29°47' W 092°12'0 0.0
2018-Jun-10 19:58N 29°47' W 092°12'0 0.0
2018-Jun-10 19:28N 29°47' W 092°12'0 0.0
2018-Jun-10 18:58N 29°47' W 092°12'0 0.0
2018-Jun-10 18:28N 29°47' W 092°12'0 0.0
2018-Jun-10 17:58N 29°47' W 092°12'0 0.0
2018-Jun-10 17:28N 29°47' W 092°12'0 0.0
2018-Jun-10 16:58N 29°47' W 092°12'0 0.0
2018-Jun-10 16:28N 29°47' W 092°12'0 0.0
2018-Jun-10 15:58N 29°47' W 092°12'0 0.0
2018-Jun-10 15:30N 29°47' W 092°12'1 2.6
2018-Jun-10 14:58N 29°47' W 092°10'0 0.0
2018-Jun-10 13:58N 29°47' W 092°10'  

Dump ship's entire track history